Narsis — 5IM513 — position and weather

sailwx.info

Track history (hours):
 
Tides and Currents Weather Stations Pressure Air Temp Water Temp Dewpoint Dewpoint Depression Visibility Wind Speed Wind Dir Waves Ship Positions

Narsis

Last reported at 2017-Oct-19 06:33 UTC. Time now 2017-Oct-19 22:06 UTC.
Position N 35°57' E 032°15'.

Length 92 m; draft 7 m.

Type: Ship (hazmat cat A). MMSI: 677041300.

Date/timePositionNaut miles runAvg speedWind from/ knotsBaromVisibWave heightAir tempDewpointWater temp
2017-Oct-19 06:33N 35°57' E 032°15'1 7.0
2017-Oct-19 06:28N 35°57' E 032°15'12 7.1
2017-Oct-19 04:49N 35°58' E 032°00'17 7.2
2017-Oct-19 02:25N 35°59' E 031°39'4 7.4
2017-Oct-19 01:54N 35°59' E 031°34'3 7.4
2017-Oct-19 01:30N 35°60' E 031°30'4 7.4
2017-Oct-19 01:00N 36°00' E 031°26'4 7.3
2017-Oct-19 00:30N 36°00' E 031°22'4 7.2
2017-Oct-19 00:00N 36°00' E 031°17'4 7.0
2017-Oct-18 23:30N 36°01' E 031°13'3 6.9
2017-Oct-18 23:00N 36°01' E 031°08'5 7.0
2017-Oct-18 22:20N 36°01' E 031°03'2 6.8
2017-Oct-18 22:00N 36°01' E 030°60'3 6.8
2017-Oct-18 21:30N 36°02' E 030°56'3 7.0
2017-Oct-18 21:00N 36°02' E 030°51'21 6.9
2017-Oct-18 17:57N 36°03' E 030°25'  
2017-Oct-15 18:56N 40°56' E 028°55'  
Track history (hours):
 
Tides and Currents Weather Stations Pressure Air Temp Water Temp Dewpoint Dewpoint Depression Visibility Wind Speed Wind Dir Waves Ship Positions

Narsis

Last reported at 2017-Oct-19 06:33 UTC. Time now 2017-Oct-19 22:06 UTC.
Position N 35°57' E 032°15'.

Length 92 m; draft 7 m.

Type: Ship (hazmat cat A). MMSI: 677041300.

Date/timePositionNaut miles runAvg speedWind from/ knotsBaromVisibWave heightAir tempDewpointWater temp
2017-Oct-19 06:33N 35°57' E 032°15'1 7.0
2017-Oct-19 06:28N 35°57' E 032°15'12 7.1
2017-Oct-19 04:49N 35°58' E 032°00'17 7.2
2017-Oct-19 02:25N 35°59' E 031°39'4 7.4
2017-Oct-19 01:54N 35°59' E 031°34'3 7.4
2017-Oct-19 01:30N 35°60' E 031°30'4 7.4
2017-Oct-19 01:00N 36°00' E 031°26'4 7.3
2017-Oct-19 00:30N 36°00' E 031°22'4 7.2
2017-Oct-19 00:00N 36°00' E 031°17'4 7.0
2017-Oct-18 23:30N 36°01' E 031°13'3 6.9
2017-Oct-18 23:00N 36°01' E 031°08'5 7.0
2017-Oct-18 22:20N 36°01' E 031°03'2 6.8
2017-Oct-18 22:00N 36°01' E 030°60'3 6.8
2017-Oct-18 21:30N 36°02' E 030°56'3 7.0
2017-Oct-18 21:00N 36°02' E 030°51'21 6.9
2017-Oct-18 17:57N 36°03' E 030°25'  
2017-Oct-15 18:56N 40°56' E 028°55'  

Dump ship's entire track history